sensor_id;sensor_type;location;lat;lon;timestamp;P1;durP1;ratioP1;P2;durP2;ratioP2
25932;SDS011;13731;51.166;4.474;2023-11-19T00:00:56;160.27;;;152.07;;
25932;SDS011;13731;51.166;4.474;2023-11-19T00:03:22;150.13;;;142.63;;
25932;SDS011;13731;51.166;4.474;2023-11-19T00:05:48;161.43;;;153.35;;
25932;SDS011;13731;51.166;4.474;2023-11-19T00:08:15;151.07;;;142.20;;
25932;SDS011;13731;51.166;4.474;2023-11-19T00:10:42;144.15;;;136.32;;
25932;SDS011;13731;51.166;4.474;2023-11-19T00:13:09;155.43;;;146.68;;
25932;SDS011;13731;51.166;4.474;2023-11-19T00:15:35;162.18;;;153.95;;
25932;SDS011;13731;51.166;4.474;2023-11-19T00:18:01;162.88;;;154.40;;
25932;SDS011;13731;51.166;4.474;2023-11-19T00:20:30;182.55;;;173.27;;
25932;SDS011;13731;51.166;4.474;2023-11-19T00:22:56;147.25;;;139.43;;
25932;SDS011;13731;51.166;4.474;2023-11-19T00:25:22;152.02;;;143.80;;
25932;SDS011;13731;51.166;4.474;2023-11-19T00:27:48;159.43;;;151.18;;
25932;SDS011;13731;51.166;4.474;2023-11-19T00:30:16;168.70;;;159.20;;
25932;SDS011;13731;51.166;4.474;2023-11-19T00:32:42;155.45;;;146.57;;
25932;SDS011;13731;51.166;4.474;2023-11-19T00:35:08;154.27;;;146.23;;
25932;SDS011;13731;51.166;4.474;2023-11-19T00:37:35;157.70;;;148.80;;
25932;SDS011;13731;51.166;4.474;2023-11-19T00:40:02;168.70;;;158.95;;
25932;SDS011;13731;51.166;4.474;2023-11-19T00:42:31;163.35;;;153.43;;
25932;SDS011;13731;51.166;4.474;2023-11-19T00:44:57;220.57;;;207.25;;
25932;SDS011;13731;51.166;4.474;2023-11-19T00:47:23;181.82;;;171.43;;
25932;SDS011;13731;51.166;4.474;2023-11-19T00:49:50;160.63;;;151.73;;
25932;SDS011;13731;51.166;4.474;2023-11-19T00:52:16;161.13;;;151.63;;
25932;SDS011;13731;51.166;4.474;2023-11-19T00:54:43;155.27;;;147.13;;
25932;SDS011;13731;51.166;4.474;2023-11-19T00:57:09;170.30;;;161.02;;
25932;SDS011;13731;51.166;4.474;2023-11-19T00:59:35;166.57;;;157.20;;
25932;SDS011;13731;51.166;4.474;2023-11-19T01:02:01;152.15;;;143.68;;
25932;SDS011;13731;51.166;4.474;2023-11-19T01:04:29;156.18;;;147.43;;
25932;SDS011;13731;51.166;4.474;2023-11-19T01:06:55;168.73;;;159.38;;
25932;SDS011;13731;51.166;4.474;2023-11-19T01:09:21;172.30;;;162.48;;
25932;SDS011;13731;51.166;4.474;2023-11-19T01:11:47;157.23;;;148.23;;
25932;SDS011;13731;51.166;4.474;2023-11-19T01:14:13;153.02;;;144.15;;
25932;SDS011;13731;51.166;4.474;2023-11-19T01:16:39;144.88;;;136.60;;
25932;SDS011;13731;51.166;4.474;2023-11-19T01:19:05;159.43;;;149.95;;
25932;SDS011;13731;51.166;4.474;2023-11-19T01:21:31;211.98;;;196.95;;
25932;SDS011;13731;51.166;4.474;2023-11-19T01:23:57;151.65;;;142.73;;
25932;SDS011;13731;51.166;4.474;2023-11-19T01:26:25;161.15;;;151.10;;
25932;SDS011;13731;51.166;4.474;2023-11-19T01:28:52;169.85;;;159.07;;
25932;SDS011;13731;51.166;4.474;2023-11-19T01:31:18;181.25;;;169.63;;
25932;SDS011;13731;51.166;4.474;2023-11-19T01:33:44;177.82;;;166.25;;
25932;SDS011;13731;51.166;4.474;2023-11-19T01:36:14;180.98;;;169.60;;
25932;SDS011;13731;51.166;4.474;2023-11-19T01:38:41;170.43;;;160.13;;
25932;SDS011;13731;51.166;4.474;2023-11-19T01:41:07;172.38;;;161.82;;
25932;SDS011;13731;51.166;4.474;2023-11-19T01:43:37;183.23;;;172.13;;
25932;SDS011;13731;51.166;4.474;2023-11-19T01:46:07;166.80;;;156.73;;
25932;SDS011;13731;51.166;4.474;2023-11-19T01:51:05;202.82;;;191.00;;
25932;SDS011;13731;51.166;4.474;2023-11-19T01:53:33;184.80;;;173.48;;
25932;SDS011;13731;51.166;4.474;2023-11-19T01:56:02;177.32;;;165.82;;
25932;SDS011;13731;51.166;4.474;2023-11-19T01:58:29;198.93;;;187.15;;
25932;SDS011;13731;51.166;4.474;2023-11-19T02:00:56;195.98;;;184.40;;
25932;SDS011;13731;51.166;4.474;2023-11-19T02:03:22;203.40;;;190.48;;
25932;SDS011;13731;51.166;4.474;2023-11-19T02:05:51;204.18;;;192.02;;
25932;SDS011;13731;51.166;4.474;2023-11-19T02:08:18;206.45;;;193.80;;
25932;SDS011;13731;51.166;4.474;2023-11-19T02:10:45;205.90;;;193.13;;
25932;SDS011;13731;51.166;4.474;2023-11-19T02:13:11;204.35;;;192.23;;
25932;SDS011;13731;51.166;4.474;2023-11-19T02:15:40;223.60;;;208.35;;
25932;SDS011;13731;51.166;4.474;2023-11-19T02:20:56;231.60;;;216.95;;
25932;SDS011;13731;51.166;4.474;2023-11-19T02:23:28;233.73;;;218.88;;
25932;SDS011;13731;51.166;4.474;2023-11-19T02:28:31;248.23;;;232.48;;
25932;SDS011;13731;51.166;4.474;2023-11-19T02:30:58;229.80;;;215.13;;
25932;SDS011;13731;51.166;4.474;2023-11-19T02:33:25;253.60;;;238.02;;
25932;SDS011;13731;51.166;4.474;2023-11-19T02:35:50;230.23;;;215.40;;
25932;SDS011;13731;51.166;4.474;2023-11-19T02:38:17;214.00;;;200.85;;
25932;SDS011;13731;51.166;4.474;2023-11-19T02:40:43;254.10;;;238.25;;
25932;SDS011;13731;51.166;4.474;2023-11-19T02:43:11;225.50;;;211.43;;
25932;SDS011;13731;51.166;4.474;2023-11-19T02:45:38;264.00;;;246.43;;
25932;SDS011;13731;51.166;4.474;2023-11-19T02:48:04;260.63;;;243.57;;
25932;SDS011;13731;51.166;4.474;2023-11-19T02:50:31;300.05;;;281.73;;
25932;SDS011;13731;51.166;4.474;2023-11-19T02:52:57;232.15;;;217.60;;
25932;SDS011;13731;51.166;4.474;2023-11-19T02:55:24;245.18;;;230.02;;
25932;SDS011;13731;51.166;4.474;2023-11-19T02:57:50;233.52;;;219.05;;
25932;SDS011;13731;51.166;4.474;2023-11-19T03:00:19;264.85;;;246.90;;
25932;SDS011;13731;51.166;4.474;2023-11-19T03:02:49;252.35;;;236.07;;
25932;SDS011;13731;51.166;4.474;2023-11-19T03:05:24;248.20;;;232.82;;
25932;SDS011;13731;51.166;4.474;2023-11-19T03:07:52;245.43;;;229.82;;
25932;SDS011;13731;51.166;4.474;2023-11-19T03:10:18;228.68;;;214.63;;
25932;SDS011;13731;51.166;4.474;2023-11-19T03:12:45;238.77;;;224.32;;
25932;SDS011;13731;51.166;4.474;2023-11-19T03:15:11;222.82;;;208.43;;
25932;SDS011;13731;51.166;4.474;2023-11-19T03:17:41;234.32;;;218.73;;
25932;SDS011;13731;51.166;4.474;2023-11-19T03:20:09;233.40;;;218.48;;
25932;SDS011;13731;51.166;4.474;2023-11-19T03:22:40;244.35;;;228.07;;
25932;SDS011;13731;51.166;4.474;2023-11-19T03:25:07;255.20;;;238.98;;
25932;SDS011;13731;51.166;4.474;2023-11-19T03:27:35;285.00;;;267.73;;
25932;SDS011;13731;51.166;4.474;2023-11-19T03:30:02;291.55;;;273.40;;
25932;SDS011;13731;51.166;4.474;2023-11-19T03:32:32;299.58;;;281.27;;
25932;SDS011;13731;51.166;4.474;2023-11-19T03:35:03;320.90;;;301.90;;
25932;SDS011;13731;51.166;4.474;2023-11-19T03:37:37;304.75;;;286.13;;
25932;SDS011;13731;51.166;4.474;2023-11-19T03:40:05;333.92;;;313.73;;
25932;SDS011;13731;51.166;4.474;2023-11-19T03:42:32;350.40;;;329.42;;
25932;SDS011;13731;51.166;4.474;2023-11-19T03:44:58;371.70;;;349.02;;
25932;SDS011;13731;51.166;4.474;2023-11-19T03:47:25;355.23;;;333.17;;
25932;SDS011;13731;51.166;4.474;2023-11-19T03:49:51;363.15;;;341.55;;
25932;SDS011;13731;51.166;4.474;2023-11-19T03:52:19;371.58;;;348.48;;
25932;SDS011;13731;51.166;4.474;2023-11-19T03:54:45;361.88;;;340.15;;
25932;SDS011;13731;51.166;4.474;2023-11-19T03:57:12;372.55;;;350.67;;
25932;SDS011;13731;51.166;4.474;2023-11-19T03:59:38;318.58;;;299.30;;
25932;SDS011;13731;51.166;4.474;2023-11-19T04:02:05;343.98;;;324.50;;
25932;SDS011;13731;51.166;4.474;2023-11-19T04:04:31;364.83;;;343.58;;
25932;SDS011;13731;51.166;4.474;2023-11-19T04:06:59;350.85;;;330.88;;
25932;SDS011;13731;51.166;4.474;2023-11-19T04:09:26;352.25;;;331.55;;
25932;SDS011;13731;51.166;4.474;2023-11-19T04:11:52;392.70;;;368.23;;
25932;SDS011;13731;51.166;4.474;2023-11-19T04:14:18;372.25;;;349.90;;
25932;SDS011;13731;51.166;4.474;2023-11-19T04:16:44;350.02;;;329.65;;
25932;SDS011;13731;51.166;4.474;2023-11-19T04:19:10;311.38;;;293.38;;
25932;SDS011;13731;51.166;4.474;2023-11-19T04:21:39;383.77;;;359.88;;
25932;SDS011;13731;51.166;4.474;2023-11-19T04:24:06;363.25;;;341.98;;
25932;SDS011;13731;51.166;4.474;2023-11-19T04:26:33;354.00;;;332.88;;
25932;SDS011;13731;51.166;4.474;2023-11-19T04:28:59;352.90;;;333.65;;
25932;SDS011;13731;51.166;4.474;2023-11-19T04:31:29;348.00;;;328.10;;
25932;SDS011;13731;51.166;4.474;2023-11-19T04:34:00;343.58;;;324.27;;
25932;SDS011;13731;51.166;4.474;2023-11-19T04:36:26;388.48;;;365.85;;
25932;SDS011;13731;51.166;4.474;2023-11-19T04:38:53;336.98;;;317.42;;
25932;SDS011;13731;51.166;4.474;2023-11-19T04:41:19;350.40;;;329.23;;
25932;SDS011;13731;51.166;4.474;2023-11-19T04:43:45;330.63;;;310.92;;
25932;SDS011;13731;51.166;4.474;2023-11-19T04:46:11;354.70;;;333.55;;
25932;SDS011;13731;51.166;4.474;2023-11-19T04:48:37;341.90;;;321.58;;
25932;SDS011;13731;51.166;4.474;2023-11-19T04:51:05;286.20;;;269.27;;
25932;SDS011;13731;51.166;4.474;2023-11-19T04:53:33;324.30;;;304.13;;
25932;SDS011;13731;51.166;4.474;2023-11-19T04:55:59;301.75;;;284.13;;
25932;SDS011;13731;51.166;4.474;2023-11-19T04:58:24;309.83;;;291.67;;
25932;SDS011;13731;51.166;4.474;2023-11-19T05:00:50;293.70;;;275.92;;
25932;SDS011;13731;51.166;4.474;2023-11-19T05:03:16;310.30;;;290.80;;
25932;SDS011;13731;51.166;4.474;2023-11-19T05:05:43;300.55;;;282.00;;
25932;SDS011;13731;51.166;4.474;2023-11-19T05:08:09;301.05;;;283.75;;
25932;SDS011;13731;51.166;4.474;2023-11-19T05:10:36;313.85;;;295.73;;
25932;SDS011;13731;51.166;4.474;2023-11-19T05:13:02;337.05;;;316.77;;
25932;SDS011;13731;51.166;4.474;2023-11-19T05:15:28;301.77;;;281.63;;
25932;SDS011;13731;51.166;4.474;2023-11-19T05:17:54;277.23;;;261.17;;
25932;SDS011;13731;51.166;4.474;2023-11-19T05:20:20;291.33;;;273.52;;
25932;SDS011;13731;51.166;4.474;2023-11-19T05:22:46;296.80;;;278.70;;
25932;SDS011;13731;51.166;4.474;2023-11-19T05:25:14;325.95;;;306.50;;
25932;SDS011;13731;51.166;4.474;2023-11-19T05:27:41;274.00;;;257.30;;
25932;SDS011;13731;51.166;4.474;2023-11-19T05:30:07;274.00;;;257.45;;
25932;SDS011;13731;51.166;4.474;2023-11-19T05:32:34;250.93;;;235.63;;
25932;SDS011;13731;51.166;4.474;2023-11-19T05:35:00;266.67;;;249.68;;
25932;SDS011;13731;51.166;4.474;2023-11-19T05:37:26;260.38;;;242.60;;
25932;SDS011;13731;51.166;4.474;2023-11-19T05:39:52;272.48;;;254.57;;
25932;SDS011;13731;51.166;4.474;2023-11-19T05:42:18;258.05;;;241.82;;
25932;SDS011;13731;51.166;4.474;2023-11-19T05:44:44;257.67;;;241.20;;
25932;SDS011;13731;51.166;4.474;2023-11-19T05:47:10;259.73;;;243.18;;
25932;SDS011;13731;51.166;4.474;2023-11-19T05:49:36;264.83;;;247.77;;
25932;SDS011;13731;51.166;4.474;2023-11-19T05:52:03;260.02;;;244.18;;
25932;SDS011;13731;51.166;4.474;2023-11-19T05:54:32;255.23;;;238.82;;
25932;SDS011;13731;51.166;4.474;2023-11-19T05:57:04;254.88;;;238.77;;
25932;SDS011;13731;51.166;4.474;2023-11-19T05:59:30;249.13;;;233.35;;
25932;SDS011;13731;51.166;4.474;2023-11-19T06:01:59;244.93;;;229.77;;
25932;SDS011;13731;51.166;4.474;2023-11-19T06:04:25;276.63;;;259.10;;
25932;SDS011;13731;51.166;4.474;2023-11-19T06:06:51;249.40;;;233.95;;
25932;SDS011;13731;51.166;4.474;2023-11-19T06:09:17;282.70;;;265.67;;
25932;SDS011;13731;51.166;4.474;2023-11-19T06:11:43;261.33;;;244.60;;
25932;SDS011;13731;51.166;4.474;2023-11-19T06:14:11;289.05;;;271.25;;
25932;SDS011;13731;51.166;4.474;2023-11-19T06:16:36;268.42;;;251.43;;
25932;SDS011;13731;51.166;4.474;2023-11-19T06:19:05;262.40;;;245.80;;
25932;SDS011;13731;51.166;4.474;2023-11-19T06:21:31;273.30;;;256.23;;
25932;SDS011;13731;51.166;4.474;2023-11-19T06:23:57;261.05;;;244.27;;
25932;SDS011;13731;51.166;4.474;2023-11-19T06:26:24;266.02;;;247.57;;
25932;SDS011;13731;51.166;4.474;2023-11-19T06:28:50;249.00;;;232.27;;
25932;SDS011;13731;51.166;4.474;2023-11-19T06:31:16;243.43;;;227.38;;
25932;SDS011;13731;51.166;4.474;2023-11-19T06:33:42;263.35;;;247.25;;
25932;SDS011;13731;51.166;4.474;2023-11-19T06:36:08;263.80;;;246.70;;
25932;SDS011;13731;51.166;4.474;2023-11-19T06:38:35;245.07;;;228.38;;
25932;SDS011;13731;51.166;4.474;2023-11-19T06:41:00;237.20;;;222.45;;
25932;SDS011;13731;51.166;4.474;2023-11-19T06:43:26;248.65;;;233.35;;
25932;SDS011;13731;51.166;4.474;2023-11-19T06:45:55;239.13;;;224.35;;
25932;SDS011;13731;51.166;4.474;2023-11-19T06:48:22;242.07;;;226.95;;
25932;SDS011;13731;51.166;4.474;2023-11-19T06:50:47;268.90;;;251.65;;
25932;SDS011;13731;51.166;4.474;2023-11-19T06:53:13;243.30;;;227.95;;
25932;SDS011;13731;51.166;4.474;2023-11-19T06:55:39;255.80;;;239.82;;
25932;SDS011;13731;51.166;4.474;2023-11-19T06:58:05;263.23;;;246.95;;
25932;SDS011;13731;51.166;4.474;2023-11-19T07:00:32;239.82;;;224.95;;
25932;SDS011;13731;51.166;4.474;2023-11-19T07:02:58;237.38;;;221.80;;
25932;SDS011;13731;51.166;4.474;2023-11-19T07:05:25;243.30;;;228.18;;
25932;SDS011;13731;51.166;4.474;2023-11-19T07:07:57;246.73;;;230.45;;
25932;SDS011;13731;51.166;4.474;2023-11-19T07:10:23;254.30;;;238.05;;
25932;SDS011;13731;51.166;4.474;2023-11-19T07:12:50;248.40;;;233.00;;
25932;SDS011;13731;51.166;4.474;2023-11-19T07:15:16;248.45;;;232.45;;
25932;SDS011;13731;51.166;4.474;2023-11-19T07:17:42;265.83;;;249.88;;
25932;SDS011;13731;51.166;4.474;2023-11-19T07:20:10;277.77;;;260.45;;
25932;SDS011;13731;51.166;4.474;2023-11-19T07:22:42;272.88;;;255.52;;
25932;SDS011;13731;51.166;4.474;2023-11-19T07:25:12;248.10;;;232.90;;
25932;SDS011;13731;51.166;4.474;2023-11-19T07:27:39;240.45;;;225.05;;
25932;SDS011;13731;51.166;4.474;2023-11-19T07:30:05;236.55;;;221.13;;
25932;SDS011;13731;51.166;4.474;2023-11-19T07:32:35;239.52;;;224.77;;
25932;SDS011;13731;51.166;4.474;2023-11-19T07:35:01;246.73;;;231.45;;
25932;SDS011;13731;51.166;4.474;2023-11-19T07:37:27;252.57;;;237.48;;
25932;SDS011;13731;51.166;4.474;2023-11-19T07:39:53;260.15;;;243.90;;
25932;SDS011;13731;51.166;4.474;2023-11-19T07:42:20;240.20;;;224.57;;
25932;SDS011;13731;51.166;4.474;2023-11-19T07:44:46;240.90;;;225.13;;
25932;SDS011;13731;51.166;4.474;2023-11-19T07:47:12;250.73;;;234.35;;
25932;SDS011;13731;51.166;4.474;2023-11-19T07:49:39;242.40;;;226.40;;
25932;SDS011;13731;51.166;4.474;2023-11-19T07:52:05;248.18;;;232.23;;
25932;SDS011;13731;51.166;4.474;2023-11-19T07:54:31;246.15;;;230.15;;
25932;SDS011;13731;51.166;4.474;2023-11-19T07:56:56;234.15;;;220.02;;
25932;SDS011;13731;51.166;4.474;2023-11-19T07:59:22;244.90;;;229.27;;
25932;SDS011;13731;51.166;4.474;2023-11-19T08:01:48;256.77;;;241.50;;
25932;SDS011;13731;51.166;4.474;2023-11-19T08:04:15;292.83;;;274.67;;
25932;SDS011;13731;51.166;4.474;2023-11-19T08:06:41;259.33;;;242.73;;
25932;SDS011;13731;51.166;4.474;2023-11-19T08:09:06;228.07;;;213.48;;
25932;SDS011;13731;51.166;4.474;2023-11-19T08:11:39;242.68;;;226.15;;
25932;SDS011;13731;51.166;4.474;2023-11-19T08:14:06;258.30;;;242.20;;
25932;SDS011;13731;51.166;4.474;2023-11-19T08:16:33;256.95;;;240.25;;
25932;SDS011;13731;51.166;4.474;2023-11-19T08:18:59;244.20;;;227.93;;
25932;SDS011;13731;51.166;4.474;2023-11-19T08:21:25;269.30;;;252.55;;
25932;SDS011;13731;51.166;4.474;2023-11-19T08:23:52;402.05;;;371.77;;
25932;SDS011;13731;51.166;4.474;2023-11-19T08:26:18;251.57;;;234.85;;
25932;SDS011;13731;51.166;4.474;2023-11-19T08:28:44;265.33;;;248.73;;
25932;SDS011;13731;51.166;4.474;2023-11-19T08:31:10;402.70;;;376.48;;
25932;SDS011;13731;51.166;4.474;2023-11-19T08:33:36;247.82;;;232.60;;
25932;SDS011;13731;51.166;4.474;2023-11-19T08:36:02;245.98;;;228.88;;
25932;SDS011;13731;51.166;4.474;2023-11-19T08:38:29;257.45;;;241.13;;
25932;SDS011;13731;51.166;4.474;2023-11-19T08:40:56;274.80;;;258.05;;
25932;SDS011;13731;51.166;4.474;2023-11-19T08:43:25;237.38;;;222.43;;
25932;SDS011;13731;51.166;4.474;2023-11-19T08:45:51;242.40;;;226.73;;
25932;SDS011;13731;51.166;4.474;2023-11-19T08:48:17;250.23;;;235.30;;
25932;SDS011;13731;51.166;4.474;2023-11-19T08:50:43;286.63;;;267.67;;
25932;SDS011;13731;51.166;4.474;2023-11-19T08:53:10;254.80;;;237.88;;
25932;SDS011;13731;51.166;4.474;2023-11-19T08:55:36;250.38;;;234.95;;
25932;SDS011;13731;51.166;4.474;2023-11-19T08:58:04;265.00;;;248.68;;
25932;SDS011;13731;51.166;4.474;2023-11-19T09:00:30;271.13;;;254.00;;
25932;SDS011;13731;51.166;4.474;2023-11-19T09:02:57;238.75;;;223.70;;
25932;SDS011;13731;51.166;4.474;2023-11-19T09:05:24;262.95;;;246.88;;
25932;SDS011;13731;51.166;4.474;2023-11-19T09:07:50;242.05;;;226.18;;
25932;SDS011;13731;51.166;4.474;2023-11-19T09:10:16;268.35;;;251.60;;
25932;SDS011;13731;51.166;4.474;2023-11-19T09:12:42;326.90;;;305.95;;
25932;SDS011;13731;51.166;4.474;2023-11-19T09:15:08;253.15;;;237.55;;
25932;SDS011;13731;51.166;4.474;2023-11-19T09:17:35;251.93;;;236.27;;
25932;SDS011;13731;51.166;4.474;2023-11-19T09:20:02;242.80;;;228.07;;
25932;SDS011;13731;51.166;4.474;2023-11-19T09:22:29;222.60;;;209.20;;
25932;SDS011;13731;51.166;4.474;2023-11-19T09:24:55;261.60;;;245.13;;
25932;SDS011;13731;51.166;4.474;2023-11-19T09:27:21;251.13;;;235.27;;
25932;SDS011;13731;51.166;4.474;2023-11-19T09:29:47;278.75;;;261.55;;
25932;SDS011;13731;51.166;4.474;2023-11-19T09:32:15;258.58;;;242.25;;
25932;SDS011;13731;51.166;4.474;2023-11-19T09:34:41;226.30;;;212.20;;
25932;SDS011;13731;51.166;4.474;2023-11-19T09:37:07;257.88;;;242.15;;
25932;SDS011;13731;51.166;4.474;2023-11-19T09:39:33;259.77;;;244.32;;
25932;SDS011;13731;51.166;4.474;2023-11-19T09:41:59;292.83;;;275.25;;
25932;SDS011;13731;51.166;4.474;2023-11-19T09:44:25;246.00;;;230.38;;
25932;SDS011;13731;51.166;4.474;2023-11-19T09:46:52;240.77;;;226.05;;
25932;SDS011;13731;51.166;4.474;2023-11-19T09:49:19;263.55;;;246.90;;
25932;SDS011;13731;51.166;4.474;2023-11-19T09:51:47;237.45;;;223.20;;
25932;SDS011;13731;51.166;4.474;2023-11-19T09:54:13;253.85;;;237.82;;
25932;SDS011;13731;51.166;4.474;2023-11-19T09:56:39;250.80;;;235.15;;
25932;SDS011;13731;51.166;4.474;2023-11-19T09:59:06;264.88;;;248.65;;
25932;SDS011;13731;51.166;4.474;2023-11-19T10:01:35;255.33;;;240.30;;
25932;SDS011;13731;51.166;4.474;2023-11-19T10:04:06;243.15;;;228.25;;
25932;SDS011;13731;51.166;4.474;2023-11-19T10:06:32;243.27;;;228.40;;
25932;SDS011;13731;51.166;4.474;2023-11-19T10:08:58;246.43;;;231.65;;
25932;SDS011;13731;51.166;4.474;2023-11-19T10:11:24;237.63;;;223.05;;
25932;SDS011;13731;51.166;4.474;2023-11-19T10:13:51;239.40;;;224.85;;
25932;SDS011;13731;51.166;4.474;2023-11-19T10:16:19;225.02;;;211.77;;
25932;SDS011;13731;51.166;4.474;2023-11-19T10:18:46;211.15;;;198.52;;
25932;SDS011;13731;51.166;4.474;2023-11-19T10:21:14;218.00;;;204.82;;
25932;SDS011;13731;51.166;4.474;2023-11-19T10:26:37;225.57;;;212.45;;
25932;SDS011;13731;51.166;4.474;2023-11-19T10:29:03;215.48;;;202.75;;
25932;SDS011;13731;51.166;4.474;2023-11-19T10:31:29;224.73;;;211.23;;
25932;SDS011;13731;51.166;4.474;2023-11-19T10:33:55;221.50;;;207.65;;
25932;SDS011;13731;51.166;4.474;2023-11-19T10:36:22;217.77;;;204.40;;
25932;SDS011;13731;51.166;4.474;2023-11-19T10:38:51;214.13;;;201.25;;
25932;SDS011;13731;51.166;4.474;2023-11-19T10:41:31;201.32;;;189.57;;
25932;SDS011;13731;51.166;4.474;2023-11-19T10:46:36;313.02;;;288.80;;
25932;SDS011;13731;51.166;4.474;2023-11-19T10:49:04;234.48;;;220.90;;
25932;SDS011;13731;51.166;4.474;2023-11-19T10:51:31;219.55;;;206.27;;
25932;SDS011;13731;51.166;4.474;2023-11-19T10:54:07;266.38;;;250.48;;
25932;SDS011;13731;51.166;4.474;2023-11-19T10:56:34;203.55;;;191.77;;
25932;SDS011;13731;51.166;4.474;2023-11-19T10:59:01;263.45;;;248.05;;
25932;SDS011;13731;51.166;4.474;2023-11-19T11:01:32;254.77;;;239.95;;
25932;SDS011;13731;51.166;4.474;2023-11-19T11:04:14;253.13;;;238.18;;
25932;SDS011;13731;51.166;4.474;2023-11-19T11:06:48;313.27;;;294.13;;
25932;SDS011;13731;51.166;4.474;2023-11-19T11:09:14;261.80;;;246.77;;
25932;SDS011;13731;51.166;4.474;2023-11-19T11:11:40;243.98;;;229.38;;
25932;SDS011;13731;51.166;4.474;2023-11-19T11:14:10;239.32;;;225.27;;
25932;SDS011;13731;51.166;4.474;2023-11-19T11:16:37;247.35;;;232.73;;
25932;SDS011;13731;51.166;4.474;2023-11-19T11:19:07;284.95;;;267.83;;
25932;SDS011;13731;51.166;4.474;2023-11-19T11:21:34;231.52;;;217.88;;
25932;SDS011;13731;51.166;4.474;2023-11-19T11:29:31;232.77;;;219.07;;
25932;SDS011;13731;51.166;4.474;2023-11-19T11:37:44;182.98;;;172.10;;
25932;SDS011;13731;51.166;4.474;2023-11-19T11:40:16;120.32;;;111.85;;
25932;SDS011;13731;51.166;4.474;2023-11-19T11:42:43;117.75;;;110.63;;
25932;SDS011;13731;51.166;4.474;2023-11-19T11:45:11;95.78;;;89.28;;
25932;SDS011;13731;51.166;4.474;2023-11-19T11:57:56;107.70;;;100.38;;
25932;SDS011;13731;51.166;4.474;2023-11-19T12:03:01;140.75;;;132.40;;
25932;SDS011;13731;51.166;4.474;2023-11-19T12:05:29;125.22;;;117.75;;
25932;SDS011;13731;51.166;4.474;2023-11-19T12:08:02;138.02;;;129.00;;
25932;SDS011;13731;51.166;4.474;2023-11-19T12:10:32;177.93;;;167.27;;
25932;SDS011;13731;51.166;4.474;2023-11-19T12:13:08;247.32;;;233.18;;
25932;SDS011;13731;51.166;4.474;2023-11-19T12:18:23;144.95;;;135.43;;
25932;SDS011;13731;51.166;4.474;2023-11-19T12:20:49;184.82;;;172.68;;
25932;SDS011;13731;51.166;4.474;2023-11-19T12:23:16;316.33;;;298.17;;
25932;SDS011;13731;51.166;4.474;2023-11-19T12:25:42;254.80;;;239.50;;
25932;SDS011;13731;51.166;4.474;2023-11-19T12:28:16;273.50;;;257.45;;
25932;SDS011;13731;51.166;4.474;2023-11-19T12:30:43;283.63;;;267.35;;
25932;SDS011;13731;51.166;4.474;2023-11-19T12:33:09;288.92;;;272.13;;
25932;SDS011;13731;51.166;4.474;2023-11-19T12:35:39;290.35;;;272.83;;
25932;SDS011;13731;51.166;4.474;2023-11-19T12:38:20;307.48;;;288.35;;
25932;SDS011;13731;51.166;4.474;2023-11-19T12:41:01;318.88;;;299.33;;
25932;SDS011;13731;51.166;4.474;2023-11-19T12:43:29;304.00;;;285.67;;
25932;SDS011;13731;51.166;4.474;2023-11-19T12:45:55;287.15;;;268.88;;
25932;SDS011;13731;51.166;4.474;2023-11-19T12:48:21;275.13;;;258.55;;
25932;SDS011;13731;51.166;4.474;2023-11-19T12:50:51;287.38;;;269.73;;
25932;SDS011;13731;51.166;4.474;2023-11-19T12:53:21;293.70;;;276.65;;
25932;SDS011;13731;51.166;4.474;2023-11-19T12:55:50;291.55;;;274.27;;
25932;SDS011;13731;51.166;4.474;2023-11-19T12:58:29;319.20;;;301.40;;
25932;SDS011;13731;51.166;4.474;2023-11-19T13:01:00;324.73;;;306.23;;
25932;SDS011;13731;51.166;4.474;2023-11-19T13:03:32;317.23;;;298.50;;
25932;SDS011;13731;51.166;4.474;2023-11-19T13:06:06;243.32;;;229.05;;
25932;SDS011;13731;51.166;4.474;2023-11-19T13:08:37;182.07;;;171.40;;
25932;SDS011;13731;51.166;4.474;2023-11-19T13:11:05;178.43;;;168.18;;
25932;SDS011;13731;51.166;4.474;2023-11-19T13:13:33;183.25;;;172.32;;
25932;SDS011;13731;51.166;4.474;2023-11-19T13:16:26;182.13;;;170.77;;
25932;SDS011;13731;51.166;4.474;2023-11-19T13:18:53;179.82;;;168.80;;
25932;SDS011;13731;51.166;4.474;2023-11-19T13:21:20;202.52;;;190.18;;
25932;SDS011;13731;51.166;4.474;2023-11-19T13:23:46;206.13;;;194.05;;
25932;SDS011;13731;51.166;4.474;2023-11-19T13:26:12;364.70;;;340.10;;
25932;SDS011;13731;51.166;4.474;2023-11-19T13:28:38;277.00;;;261.52;;
25932;SDS011;13731;51.166;4.474;2023-11-19T13:31:04;245.23;;;230.68;;
25932;SDS011;13731;51.166;4.474;2023-11-19T13:33:30;278.08;;;262.63;;
25932;SDS011;13731;51.166;4.474;2023-11-19T13:35:58;309.00;;;290.58;;
25932;SDS011;13731;51.166;4.474;2023-11-19T13:38:30;258.52;;;242.25;;
25932;SDS011;13731;51.166;4.474;2023-11-19T13:41:02;246.30;;;231.20;;
25932;SDS011;13731;51.166;4.474;2023-11-19T13:43:30;233.68;;;219.90;;
25932;SDS011;13731;51.166;4.474;2023-11-19T13:45:56;192.02;;;180.27;;
25932;SDS011;13731;51.166;4.474;2023-11-19T13:48:23;187.70;;;176.25;;
25932;SDS011;13731;51.166;4.474;2023-11-19T13:50:50;207.27;;;195.00;;
25932;SDS011;13731;51.166;4.474;2023-11-19T13:53:16;241.18;;;227.52;;
25932;SDS011;13731;51.166;4.474;2023-11-19T13:55:42;276.48;;;260.33;;
25932;SDS011;13731;51.166;4.474;2023-11-19T13:58:08;315.88;;;296.95;;
25932;SDS011;13731;51.166;4.474;2023-11-19T14:00:35;250.20;;;235.65;;
25932;SDS011;13731;51.166;4.474;2023-11-19T14:03:02;250.82;;;236.63;;
25932;SDS011;13731;51.166;4.474;2023-11-19T14:05:28;252.35;;;237.82;;
25932;SDS011;13731;51.166;4.474;2023-11-19T14:07:54;254.77;;;239.68;;
25932;SDS011;13731;51.166;4.474;2023-11-19T14:10:22;248.07;;;233.35;;
25932;SDS011;13731;51.166;4.474;2023-11-19T14:12:49;278.55;;;261.88;;
25932;SDS011;13731;51.166;4.474;2023-11-19T14:15:15;293.50;;;276.00;;
25932;SDS011;13731;51.166;4.474;2023-11-19T14:17:44;268.75;;;253.60;;
25932;SDS011;13731;51.166;4.474;2023-11-19T14:20:10;298.85;;;281.23;;
25932;SDS011;13731;51.166;4.474;2023-11-19T14:22:44;352.90;;;332.17;;
25932;SDS011;13731;51.166;4.474;2023-11-19T14:25:14;306.50;;;288.70;;
25932;SDS011;13731;51.166;4.474;2023-11-19T14:27:42;289.55;;;271.40;;
25932;SDS011;13731;51.166;4.474;2023-11-19T14:30:09;291.75;;;273.85;;
25932;SDS011;13731;51.166;4.474;2023-11-19T14:32:36;317.67;;;298.38;;
25932;SDS011;13731;51.166;4.474;2023-11-19T14:35:04;236.23;;;222.13;;
25932;SDS011;13731;51.166;4.474;2023-11-19T14:37:30;218.43;;;203.50;;